createdAt,value
2017-02-04T00:00:08.728Z,21.85
2017-02-04T00:00:49.225Z,21.89
2017-02-04T00:01:29.730Z,21.97
2017-02-04T00:02:10.228Z,21.89
2017-02-04T00:02:50.723Z,21.85
2017-02-04T00:03:31.227Z,21.9
2017-02-04T00:04:11.717Z,21.8
2017-02-04T00:04:52.212Z,21.8
2017-02-04T00:05:32.717Z,21.73
2017-02-04T00:06:13.224Z,21.78
2017-02-04T00:06:53.721Z,21.77
2017-02-04T00:07:34.214Z,21.82
2017-02-04T00:08:14.703Z,21.78
2017-02-04T00:08:55.195Z,21.78
2017-02-04T00:09:35.691Z,21.86
2017-02-04T00:10:16.166Z,21.86
2017-02-04T00:10:56.660Z,21.76
2017-02-04T00:11:37.159Z,21.7
2017-02-04T00:12:17.657Z,21.8
2017-02-04T00:12:58.143Z,21.74
2017-02-04T00:13:38.632Z,21.8
2017-02-04T00:14:19.134Z,21.85
2017-02-04T00:14:59.618Z,21.89
2017-02-04T00:15:40.100Z,21.85
2017-02-04T00:16:20.600Z,21.78
2017-02-04T00:17:01.105Z,21.85
2017-02-04T00:17:41.607Z,21.77
2017-02-04T00:18:22.104Z,21.7
2017-02-04T00:19:02.610Z,21.78
2017-02-04T00:19:43.102Z,21.93
2017-02-04T00:20:23.615Z,21.86
2017-02-04T00:21:04.097Z,21.83
2017-02-04T00:21:44.598Z,21.76
2017-02-04T00:22:25.107Z,21.93
2017-02-04T00:23:05.597Z,21.92
2017-02-04T00:23:46.104Z,21.78
2017-02-04T00:24:26.596Z,21.8
2017-02-04T00:25:07.087Z,21.86
2017-02-04T00:25:47.600Z,21.92
2017-02-04T00:26:28.089Z,21.99
2017-02-04T00:27:08.599Z,21.89
2017-02-04T00:27:49.084Z,21.94
2017-02-04T00:28:29.571Z,21.8
2017-02-04T00:29:10.068Z,21.99
2017-02-04T00:29:50.568Z,21.93
2017-02-04T00:30:31.057Z,21.77
2017-02-04T00:31:11.544Z,21.9
2017-02-04T00:31:52.041Z,21.99
2017-02-04T00:32:32.538Z,21.94
2017-02-04T00:33:13.044Z,21.92
2017-02-04T00:33:53.533Z,21.93
2017-02-04T00:34:34.034Z,21.97
2017-02-04T00:35:14.534Z,21.92
2017-02-04T00:35:55.217Z,21.78
2017-02-04T00:36:35.691Z,21.78
2017-02-04T00:37:16.186Z,21.78
2017-02-04T00:37:56.692Z,21.77
2017-02-04T00:38:37.183Z,21.76
2017-02-04T00:39:17.683Z,21.85
2017-02-04T00:39:58.194Z,22
2017-02-04T00:40:38.685Z,21.85
2017-02-04T00:41:19.173Z,21.89
2017-02-04T00:41:59.665Z,21.8
2017-02-04T00:42:40.145Z,21.85
2017-02-04T00:43:20.659Z,21.85
2017-02-04T00:44:01.145Z,21.83
2017-02-04T00:44:41.637Z,21.85
2017-02-04T00:45:22.137Z,21.86
2017-02-04T00:46:02.632Z,22
2017-02-04T00:46:43.129Z,21.97
2017-02-04T00:47:23.623Z,21.85
2017-02-04T00:48:04.116Z,21.86
2017-02-04T00:48:44.628Z,21.92
2017-02-04T00:49:25.135Z,21.83
2017-02-04T00:50:05.630Z,21.93
2017-02-04T00:50:46.125Z,21.8
2017-02-04T00:51:26.624Z,21.82
2017-02-04T00:52:07.128Z,21.83
2017-02-04T00:52:47.617Z,21.8
2017-02-04T00:53:28.103Z,21.8
2017-02-04T00:54:08.603Z,21.8
2017-02-04T00:54:49.099Z,21.83
2017-02-04T00:55:29.571Z,21.94
2017-02-04T00:56:10.068Z,21.92
2017-02-04T00:56:50.573Z,21.99
2017-02-04T00:57:31.068Z,21.83
2017-02-04T00:58:11.571Z,21.92
2017-02-04T00:58:52.061Z,21.96
2017-02-04T00:59:32.562Z,21.97
2017-02-04T01:00:13.061Z,21.92
2017-02-04T01:00:53.576Z,21.9
2017-02-04T01:01:34.068Z,21.89
2017-02-04T01:02:14.566Z,21.92
2017-02-04T01:02:55.055Z,21.94
2017-02-04T01:03:35.544Z,21.93
2017-02-04T01:04:16.028Z,21.96
2017-02-04T01:04:56.531Z,21.93
2017-02-04T01:05:37.013Z,21.89
2017-02-04T01:06:17.500Z,21.83
2017-02-04T01:06:58.020Z,21.99
2017-02-04T01:07:38.480Z,21.94
2017-02-04T01:08:18.979Z,21.9
2017-02-04T01:08:59.462Z,21.93
2017-02-04T01:09:39.948Z,21.93
2017-02-04T01:10:20.457Z,21.89
2017-02-04T01:11:00.941Z,21.9
2017-02-04T01:11:41.433Z,21.86
2017-02-04T01:12:21.913Z,21.85
2017-02-04T01:13:02.405Z,21.86
2017-02-04T01:13:42.907Z,21.93
2017-02-04T01:14:23.404Z,21.8
2017-02-04T01:15:03.911Z,21.9
2017-02-04T01:15:44.525Z,21.89
2017-02-04T01:16:25.009Z,21.93
2017-02-04T01:17:05.502Z,21.85
2017-02-04T01:17:45.997Z,21.93
2017-02-04T01:18:26.498Z,21.92
2017-02-04T01:19:07.001Z,21.92
2017-02-04T01:19:47.497Z,21.89
2017-02-04T01:20:27.998Z,21.89
2017-02-04T01:21:08.493Z,21.92
2017-02-04T01:21:48.999Z,21.99
2017-02-04T01:22:29.489Z,22.09
2017-02-04T01:23:09.991Z,22.04
2017-02-04T01:23:50.488Z,22.04
2017-02-04T01:24:30.996Z,21.97
2017-02-04T01:25:11.479Z,21.92
2017-02-04T01:25:51.967Z,21.89
2017-02-04T01:26:32.461Z,21.86
2017-02-04T01:27:12.966Z,21.76
2017-02-04T01:27:53.457Z,21.8
2017-02-04T01:28:33.963Z,21.89
2017-02-04T01:29:14.447Z,21.78
2017-02-04T01:29:54.942Z,21.86
2017-02-04T01:30:35.435Z,21.93
2017-02-04T01:31:15.936Z,21.97
2017-02-04T01:31:56.437Z,21.89
2017-02-04T01:32:36.923Z,21.92
2017-02-04T01:33:17.409Z,22.08
2017-02-04T01:33:57.907Z,21.93
2017-02-04T01:34:38.405Z,21.89
2017-02-04T01:35:18.888Z,21.82
2017-02-04T01:35:59.399Z,21.9
2017-02-04T01:36:39.885Z,21.85
2017-02-04T01:37:20.381Z,21.94
2017-02-04T01:38:00.876Z,21.89
2017-02-04T01:38:41.385Z,21.83
2017-02-04T01:39:21.881Z,21.77
2017-02-04T01:40:02.367Z,21.78
2017-02-04T01:40:42.870Z,21.83
2017-02-04T01:41:23.375Z,21.8
2017-02-04T01:42:03.878Z,21.85
2017-02-04T01:42:44.374Z,21.93
2017-02-04T01:43:24.878Z,21.92
2017-02-04T01:44:05.379Z,21.93
2017-02-04T01:44:45.875Z,21.89
2017-02-04T01:45:26.359Z,21.8
2017-02-04T01:46:06.873Z,21.82
2017-02-04T01:46:47.359Z,21.8
2017-02-04T01:47:27.874Z,21.76
2017-02-04T01:48:08.360Z,21.78
2017-02-04T01:48:48.871Z,21.74
2017-02-04T01:49:29.364Z,21.82
2017-02-04T01:50:09.873Z,21.93
2017-02-04T01:50:50.355Z,21.78
2017-02-04T01:51:30.864Z,21.85
2017-02-04T01:52:11.366Z,21.89
2017-02-04T01:52:51.867Z,21.8
2017-02-04T01:53:32.352Z,21.76
2017-02-04T01:54:12.842Z,21.77
2017-02-04T01:54:53.327Z,21.78
2017-02-04T01:55:33.818Z,21.71
2017-02-04T01:56:14.319Z,21.7
2017-02-04T01:56:54.814Z,21.78
2017-02-04T01:57:35.310Z,21.77
2017-02-04T01:58:15.806Z,21.82
2017-02-04T01:58:56.311Z,21.89
2017-02-04T01:59:36.801Z,21.78
2017-02-04T02:00:17.300Z,21.83
2017-02-04T02:00:57.812Z,21.78
2017-02-04T02:01:38.308Z,21.93
2017-02-04T02:02:18.806Z,21.89
2017-02-04T02:02:59.314Z,21.8
2017-02-04T02:03:39.809Z,21.96
2017-02-04T02:04:20.303Z,21.85
2017-02-04T02:05:00.792Z,21.93
2017-02-04T02:05:41.278Z,21.86
2017-02-04T02:06:21.765Z,21.94
2017-02-04T02:07:02.280Z,21.85
2017-02-04T02:07:42.776Z,21.83
2017-02-04T02:08:23.271Z,21.96
2017-02-04T02:09:03.760Z,21.8
2017-02-04T02:09:44.254Z,21.86
2017-02-04T02:10:24.750Z,21.74
2017-02-04T02:11:05.238Z,21.89
2017-02-04T02:11:45.748Z,21.8
2017-02-04T02:12:26.245Z,21.86
2017-02-04T02:13:06.745Z,21.8
2017-02-04T02:13:47.234Z,21.82
2017-02-04T02:14:27.723Z,21.77
2017-02-04T02:15:08.290Z,21.8
2017-02-04T02:15:48.792Z,21.76
2017-02-04T02:16:29.293Z,21.82
2017-02-04T02:17:09.779Z,21.86
2017-02-04T02:17:50.296Z,21.78
2017-02-04T02:18:30.793Z,21.8
2017-02-04T02:19:11.291Z,21.92
2017-02-04T02:19:51.778Z,21.8
2017-02-04T02:20:32.266Z,21.78
2017-02-04T02:21:12.764Z,21.77
2017-02-04T02:21:53.257Z,21.76
2017-02-04T02:22:33.741Z,21.8
2017-02-04T02:23:14.255Z,21.82
2017-02-04T02:23:54.736Z,21.78
2017-02-04T02:24:35.227Z,21.77
2017-02-04T02:25:15.722Z,21.71
2017-02-04T02:25:56.209Z,21.86
2017-02-04T02:26:36.706Z,21.76
2017-02-04T02:27:17.191Z,21.76
2017-02-04T02:27:57.687Z,21.78
2017-02-04T02:28:38.182Z,21.85
2017-02-04T02:29:18.673Z,21.92
2017-02-04T02:29:59.178Z,21.97
2017-02-04T02:30:39.679Z,21.96
2017-02-04T02:31:20.181Z,21.8
2017-02-04T02:32:00.671Z,21.89
2017-02-04T02:32:41.179Z,21.77
2017-02-04T02:33:21.676Z,21.76
2017-02-04T02:34:02.177Z,21.85
2017-02-04T02:34:42.669Z,21.8
2017-02-04T02:35:23.175Z,21.68
2017-02-04T02:36:03.673Z,21.78
2017-02-04T02:36:44.176Z,21.8
2017-02-04T02:37:24.662Z,21.76
2017-02-04T02:38:05.145Z,21.83
2017-02-04T02:38:45.633Z,21.93
2017-02-04T02:39:26.126Z,21.78
2017-02-04T02:40:06.620Z,21.77
2017-02-04T02:40:47.104Z,21.66
2017-02-04T02:41:27.621Z,21.71
2017-02-04T02:42:08.225Z,21.68
2017-02-04T02:42:48.719Z,21.78
2017-02-04T02:43:29.221Z,21.76
2017-02-04T02:44:09.719Z,21.76
2017-02-04T02:44:50.209Z,21.77
2017-02-04T02:47:03.003Z,21.86
2017-02-04T02:47:43.499Z,21.8
2017-02-04T02:48:23.981Z,21.78
2017-02-04T02:49:04.480Z,21.8
2017-02-04T02:49:44.974Z,21.9
2017-02-04T02:50:25.465Z,21.83
2017-02-04T02:51:05.951Z,21.74
2017-02-04T02:51:46.432Z,21.77
2017-02-04T02:52:26.922Z,21.76
2017-02-04T02:53:07.419Z,21.78
2017-02-04T02:53:47.925Z,21.66
2017-02-04T02:54:28.419Z,21.71
2017-02-04T02:55:08.914Z,21.71
2017-02-04T02:55:49.397Z,21.71
2017-02-04T02:56:29.891Z,21.77
2017-02-04T02:57:10.387Z,21.73
2017-02-04T02:57:50.865Z,21.73
2017-02-04T02:59:48.563Z,21.8
2017-02-04T03:00:29.052Z,21.83
2017-02-04T03:01:09.539Z,21.78
2017-02-04T03:01:50.143Z,21.68
2017-02-04T03:02:30.650Z,21.85
2017-02-04T03:03:11.145Z,21.77
2017-02-04T03:03:51.625Z,21.7
2017-02-04T03:04:32.116Z,21.74
2017-02-04T03:05:12.600Z,21.78
2017-02-04T03:05:53.093Z,21.78
2017-02-04T03:06:33.588Z,21.76
2017-02-04T03:07:14.070Z,21.77
2017-02-04T03:07:54.558Z,21.77
2017-02-04T03:08:35.044Z,21.74
2017-02-04T03:09:15.541Z,21.67
2017-02-04T03:09:56.032Z,21.77
2017-02-04T03:10:36.514Z,21.78
2017-02-04T03:11:17.018Z,21.74
2017-02-04T03:11:57.511Z,21.77
2017-02-04T03:12:38.001Z,21.76
2017-02-04T03:13:18.487Z,21.73
2017-02-04T03:13:58.968Z,21.77
2017-02-04T03:14:39.459Z,21.67
2017-02-04T03:15:20.031Z,21.67
2017-02-04T03:16:00.513Z,21.71
2017-02-04T03:16:40.995Z,21.68
2017-02-04T03:17:21.481Z,21.61
2017-02-04T03:18:01.963Z,21.7
2017-02-04T03:18:42.458Z,21.66
2017-02-04T03:19:22.951Z,21.67
2017-02-04T03:20:03.440Z,21.67
2017-02-04T03:20:43.931Z,21.78
2017-02-04T03:21:24.426Z,21.77
2017-02-04T03:22:04.927Z,21.73
2017-02-04T03:22:45.411Z,21.74
2017-02-04T03:23:25.898Z,21.71
2017-02-04T03:24:06.378Z,21.74
2017-02-04T03:24:46.872Z,21.77
2017-02-04T03:25:27.370Z,21.74
2017-02-04T03:26:07.854Z,21.76
2017-02-04T03:26:48.341Z,21.82
2017-02-04T03:27:28.844Z,21.76
2017-02-04T03:28:09.330Z,21.76
2017-02-04T03:28:49.819Z,21.71
2017-02-04T03:29:30.311Z,21.74
2017-02-04T03:30:10.813Z,21.78
2017-02-04T03:30:51.300Z,21.71
2017-02-04T03:31:31.791Z,21.68
2017-02-04T03:32:12.289Z,21.74
2017-02-04T03:32:52.778Z,21.82
2017-02-04T03:33:33.288Z,21.77
2017-02-04T03:34:13.778Z,21.82
2017-02-04T03:34:54.290Z,21.7
2017-02-04T03:35:34.783Z,21.67
2017-02-04T03:36:15.287Z,21.68
2017-02-04T03:36:55.782Z,21.62
2017-02-04T03:37:36.285Z,21.71
2017-02-04T03:38:16.777Z,21.66
2017-02-04T03:38:57.277Z,21.61
2017-02-04T03:39:37.774Z,21.76
2017-02-04T03:40:18.283Z,21.74
2017-02-04T03:40:58.775Z,21.78
2017-02-04T03:41:39.285Z,21.64
2017-02-04T03:42:19.786Z,21.71
2017-02-04T03:43:00.281Z,21.76
2017-02-04T03:43:40.771Z,21.78
2017-02-04T03:44:21.273Z,21.82
2017-02-04T03:45:01.772Z,21.77
2017-02-04T03:45:42.280Z,21.68
2017-02-04T03:46:22.772Z,21.74
2017-02-04T03:47:03.279Z,21.66
2017-02-04T03:47:43.866Z,21.74
2017-02-04T03:48:24.352Z,21.71
2017-02-04T03:49:04.851Z,21.53
2017-02-04T03:49:45.350Z,21.68
2017-02-04T03:50:25.826Z,21.67
2017-02-04T03:51:06.321Z,21.7
2017-02-04T03:51:46.825Z,21.64
2017-02-04T03:52:27.321Z,21.67
2017-02-04T03:53:07.825Z,21.67
2017-02-04T03:53:48.307Z,21.64
2017-02-04T03:54:28.798Z,21.64
2017-02-04T03:55:09.294Z,21.66
2017-02-04T03:55:49.794Z,21.55
2017-02-04T03:56:30.278Z,21.48
2017-02-04T03:57:10.773Z,21.61
2017-02-04T03:57:51.267Z,21.53
2017-02-04T03:58:31.752Z,21.56
2017-02-04T03:59:12.241Z,21.66
2017-02-04T03:59:52.727Z,21.67
2017-02-04T04:00:33.218Z,21.68
2017-02-04T04:01:13.711Z,21.62
2017-02-04T04:01:54.199Z,21.67
2017-02-04T04:02:34.686Z,21.67
2017-02-04T04:03:15.184Z,21.62
2017-02-04T04:03:55.678Z,21.64
2017-02-04T04:04:36.161Z,21.74
2017-02-04T04:05:16.645Z,21.71
2017-02-04T04:05:57.157Z,21.64
2017-02-04T04:06:37.642Z,21.53
2017-02-04T04:07:18.132Z,21.56
2017-02-04T04:07:58.627Z,21.58
2017-02-04T04:08:39.126Z,21.52
2017-02-04T04:09:19.618Z,21.64
2017-02-04T04:10:00.137Z,21.52
2017-02-04T04:10:40.626Z,21.56
2017-02-04T04:11:21.131Z,21.68
2017-02-04T04:12:01.602Z,21.56
2017-02-04T04:12:42.101Z,21.62
2017-02-04T04:13:22.598Z,21.7
2017-02-04T04:14:03.084Z,21.64
2017-02-04T04:14:43.573Z,21.66
2017-02-04T04:15:24.056Z,21.59
2017-02-04T04:16:04.549Z,21.52
2017-02-04T04:16:45.046Z,21.66
2017-02-04T04:17:25.535Z,21.62
2017-02-04T04:18:06.044Z,21.66
2017-02-04T04:18:46.533Z,21.61
2017-02-04T04:19:27.026Z,21.58
2017-02-04T04:20:07.503Z,21.53
2017-02-04T04:20:48.012Z,21.55
2017-02-04T04:21:28.497Z,21.61
2017-02-04T04:22:08.995Z,21.59
2017-02-04T04:22:49.485Z,21.52
2017-02-04T04:23:30.014Z,21.53
2017-02-04T04:24:10.489Z,21.62
2017-02-04T04:24:50.985Z,21.55
2017-02-04T04:25:31.486Z,21.59
2017-02-04T04:26:11.977Z,21.67
2017-02-04T04:26:52.466Z,21.68
2017-02-04T04:27:32.944Z,21.53
2017-02-04T04:28:13.436Z,21.53
2017-02-04T04:28:53.925Z,21.62
2017-02-04T04:29:34.420Z,21.55
2017-02-04T04:30:14.905Z,21.48
2017-02-04T04:30:55.391Z,21.52
2017-02-04T04:31:35.904Z,21.55
2017-02-04T04:32:16.389Z,21.52
2017-02-04T04:32:56.902Z,21.49
2017-02-04T04:33:37.390Z,21.49
2017-02-04T04:34:17.876Z,21.53
2017-02-04T04:34:58.374Z,21.55
2017-02-04T04:35:38.861Z,21.53
2017-02-04T04:36:19.349Z,21.58
2017-02-04T04:36:59.832Z,21.53
2017-02-04T04:37:40.322Z,21.52
2017-02-04T04:38:20.817Z,21.61
2017-02-04T04:39:01.313Z,21.62
2017-02-04T04:39:41.828Z,21.62
2017-02-04T04:40:22.324Z,21.52
2017-02-04T04:41:02.818Z,21.61
2017-02-04T04:41:43.309Z,21.53
2017-02-04T04:42:23.792Z,21.64
2017-02-04T04:43:04.275Z,21.64
2017-02-04T04:43:44.768Z,21.61
2017-02-04T04:44:25.259Z,21.62
2017-02-04T04:45:05.760Z,21.55
2017-02-04T04:45:46.263Z,21.55
2017-02-04T04:46:26.746Z,21.56
2017-02-04T04:47:07.237Z,21.58
2017-02-04T04:47:47.733Z,21.53
2017-02-04T04:48:28.228Z,21.59
2017-02-04T04:49:08.708Z,21.71
2017-02-04T04:49:49.202Z,21.61
2017-02-04T04:50:29.706Z,21.7
2017-02-04T04:51:10.192Z,21.66
2017-02-04T04:51:50.689Z,21.67
2017-02-04T04:52:31.164Z,21.67
2017-02-04T04:53:11.670Z,21.49
2017-02-04T04:53:52.153Z,21.59
2017-02-04T04:54:32.646Z,21.68
2017-02-04T04:55:13.142Z,21.55
2017-02-04T04:55:53.650Z,21.55
2017-02-04T04:56:34.150Z,21.59
2017-02-04T04:57:14.638Z,21.48
2017-02-04T04:57:55.125Z,21.53
2017-02-04T04:58:35.621Z,21.59
2017-02-04T04:59:16.113Z,21.53
2017-02-04T04:59:56.597Z,21.62
2017-02-04T05:00:37.079Z,21.68
2017-02-04T05:01:17.569Z,21.67
2017-02-04T05:01:58.050Z,21.53
2017-02-04T05:02:38.539Z,21.46
2017-02-04T05:03:19.019Z,21.62
2017-02-04T05:03:59.512Z,21.56
2017-02-04T05:04:40.005Z,21.68
2017-02-04T05:05:20.513Z,21.66
2017-02-04T05:06:00.983Z,21.66
2017-02-04T05:06:41.484Z,21.56
2017-02-04T05:07:21.986Z,21.55
2017-02-04T05:08:02.487Z,21.56
2017-02-04T05:08:42.960Z,21.55
2017-02-04T05:09:23.461Z,21.52
2017-02-04T05:10:03.936Z,21.58
2017-02-04T05:10:44.438Z,21.51
2017-02-04T05:11:24.931Z,21.56
2017-02-04T05:12:05.427Z,21.49
2017-02-04T05:12:45.933Z,21.49
2017-02-04T05:13:26.428Z,21.3
2017-02-04T05:14:06.932Z,21.34
2017-02-04T05:14:47.427Z,21.37
2017-02-04T05:15:27.928Z,21.49
2017-02-04T05:16:08.408Z,21.46
2017-02-04T05:16:48.903Z,21.4
2017-02-04T05:17:29.394Z,21.49
2017-02-04T05:18:09.899Z,21.55
2017-02-04T05:18:50.395Z,21.52
2017-02-04T05:21:03.506Z,21.51
2017-02-04T05:21:43.995Z,21.51
2017-02-04T05:22:24.494Z,21.43
2017-02-04T05:23:04.977Z,21.45
2017-02-04T05:23:45.472Z,21.46
2017-02-04T05:24:25.951Z,21.4
2017-02-04T05:25:06.444Z,21.48
2017-02-04T05:25:46.935Z,21.51
2017-02-04T05:26:27.433Z,21.58
2017-02-04T05:27:07.943Z,21.56
2017-02-04T05:27:48.439Z,21.58
2017-02-04T05:28:28.935Z,21.62
2017-02-04T05:29:09.435Z,21.56
2017-02-04T05:29:49.934Z,21.56
2017-02-04T05:30:30.428Z,21.55
2017-02-04T05:31:10.910Z,21.52
2017-02-04T05:31:51.404Z,21.52
2017-02-04T05:32:31.899Z,21.56
2017-02-04T05:33:12.379Z,21.49
2017-02-04T05:33:52.874Z,21.51
2017-02-04T05:34:33.380Z,21.55
2017-02-04T05:35:13.873Z,21.52
2017-02-04T05:35:54.368Z,21.55
2017-02-04T05:36:34.866Z,21.48
2017-02-04T05:37:15.352Z,21.56
2017-02-04T05:37:55.848Z,21.48
2017-02-04T05:38:36.348Z,21.62
2017-02-04T05:39:16.845Z,21.66
2017-02-04T05:39:57.344Z,21.66
2017-02-04T05:40:37.830Z,21.58
2017-02-04T05:41:18.325Z,21.52
2017-02-04T05:41:58.824Z,21.68
2017-02-04T05:42:39.321Z,21.67
2017-02-04T05:43:19.812Z,21.64
2017-02-04T05:44:00.306Z,21.56
2017-02-04T05:44:40.826Z,21.61
2017-02-04T05:45:21.268Z,21.53
2017-02-04T05:46:01.766Z,21.53
2017-02-04T05:46:42.271Z,21.64
2017-02-04T05:47:22.752Z,21.45
2017-02-04T05:48:03.250Z,21.53
2017-02-04T05:48:43.757Z,21.53
2017-02-04T05:49:24.258Z,21.49
2017-02-04T05:50:04.765Z,21.53
2017-02-04T05:50:45.257Z,21.46
2017-02-04T05:51:25.749Z,21.53
2017-02-04T05:52:06.264Z,21.49
2017-02-04T05:52:46.762Z,21.53
2017-02-04T05:53:27.258Z,21.52
2017-02-04T05:54:07.751Z,21.48
2017-02-04T05:54:48.255Z,21.55
2017-02-04T05:55:28.758Z,21.51
2017-02-04T05:56:09.251Z,21.56
2017-02-04T05:56:49.750Z,21.62
2017-02-04T05:57:30.233Z,21.64
2017-02-04T05:58:10.728Z,21.53
2017-02-04T05:58:51.225Z,21.51
2017-02-04T05:59:31.710Z,21.49
2017-02-04T06:00:12.237Z,21.49
2017-02-04T06:00:52.729Z,21.4
2017-02-04T06:01:33.236Z,21.43
2017-02-04T06:02:13.726Z,21.52
2017-02-04T06:02:54.222Z,21.46
2017-02-04T06:03:34.708Z,21.41
2017-02-04T06:04:15.203Z,21.41
2017-02-04T06:04:55.697Z,21.51
2017-02-04T06:05:36.189Z,21.46
2017-02-04T06:06:16.696Z,21.49
2017-02-04T06:06:57.181Z,21.41
2017-02-04T06:07:37.693Z,21.37
2017-02-04T06:08:18.179Z,21.41
2017-02-04T06:08:58.667Z,21.48
2017-02-04T06:09:39.165Z,21.4
2017-02-04T06:10:19.661Z,21.51
2017-02-04T06:11:00.148Z,21.43
2017-02-04T06:11:40.638Z,21.45
2017-02-04T06:12:21.136Z,21.45
2017-02-04T06:13:01.634Z,21.52
2017-02-04T06:13:42.137Z,21.43
2017-02-04T06:14:22.639Z,21.41
2017-02-04T06:15:03.132Z,21.49
2017-02-04T06:15:43.628Z,21.48
2017-02-04T06:16:24.127Z,21.58
2017-02-04T06:17:04.639Z,21.51
2017-02-04T06:17:45.134Z,21.55
2017-02-04T06:18:25.626Z,21.49
2017-02-04T06:19:06.130Z,21.48
2017-02-04T06:19:46.623Z,21.56
2017-02-04T06:20:27.133Z,21.52
2017-02-04T06:21:07.623Z,21.51
2017-02-04T06:21:48.124Z,21.55
2017-02-04T06:22:28.620Z,21.56
2017-02-04T06:23:09.106Z,21.41
2017-02-04T06:23:49.690Z,21.51
2017-02-04T06:24:30.182Z,21.48
2017-02-04T06:25:10.683Z,21.51
2017-02-04T06:25:51.176Z,21.52
2017-02-04T06:26:31.677Z,21.52
2017-02-04T06:27:12.163Z,21.56
2017-02-04T06:27:52.671Z,21.59
2017-02-04T06:28:33.170Z,21.58
2017-02-04T06:29:13.675Z,21.53
2017-02-04T06:29:54.204Z,21.55
2017-02-04T06:30:34.697Z,21.55
2017-02-04T06:31:15.194Z,21.56
2017-02-04T06:31:55.678Z,21.48
2017-02-04T06:32:36.167Z,21.53
2017-02-04T06:33:16.674Z,21.51
2017-02-04T06:33:57.157Z,21.45
2017-02-04T06:34:37.646Z,21.53
2017-02-04T06:35:18.140Z,21.49
2017-02-04T06:35:58.643Z,21.53
2017-02-04T06:36:39.120Z,21.59
2017-02-04T06:37:19.635Z,21.66
2017-02-04T06:38:00.119Z,21.55
2017-02-04T06:38:40.617Z,21.58
2017-02-04T06:39:21.115Z,21.45
2017-02-04T06:40:01.604Z,21.64
2017-02-04T06:40:42.107Z,21.56
2017-02-04T06:41:22.602Z,21.52
2017-02-04T06:42:03.109Z,21.68
2017-02-04T06:42:43.664Z,21.66
2017-02-04T06:43:24.146Z,21.52
2017-02-04T06:44:04.641Z,21.45
2017-02-04T06:44:45.118Z,21.37
2017-02-04T06:45:25.683Z,21.41
2017-02-04T06:46:06.180Z,21.67
2017-02-04T06:46:46.659Z,21.53
2017-02-04T06:47:27.151Z,21.43
2017-02-04T06:48:07.659Z,21.48
2017-02-04T06:48:48.155Z,21.46
2017-02-04T06:49:28.652Z,21.52
2017-02-04T06:50:09.141Z,21.56
2017-02-04T06:50:49.627Z,21.49
2017-02-04T06:51:30.114Z,21.48
2017-02-04T06:52:10.608Z,21.58
2017-02-04T06:52:51.104Z,21.62
2017-02-04T06:53:31.588Z,21.56
2017-02-04T06:54:12.078Z,21.61
2017-02-04T06:54:52.559Z,21.48
2017-02-04T06:55:33.055Z,21.55
2017-02-04T06:56:13.548Z,21.55
2017-02-04T06:56:54.031Z,21.46
2017-02-04T06:57:34.518Z,21.59
2017-02-04T06:58:14.998Z,21.56
2017-02-04T06:58:55.497Z,21.46
2017-02-04T06:59:35.994Z,21.4
2017-02-04T07:00:16.473Z,21.41
2017-02-04T07:00:56.983Z,21.52
2017-02-04T07:01:37.497Z,21.46
2017-02-04T07:02:17.990Z,21.52
2017-02-04T07:02:58.517Z,21.61
2017-02-04T07:03:38.996Z,21.58
2017-02-04T07:04:19.494Z,21.67
2017-02-04T07:04:59.988Z,21.53
2017-02-04T07:05:40.486Z,21.51
2017-02-04T07:06:21.010Z,21.56
2017-02-04T07:07:01.507Z,21.52
2017-02-04T07:07:41.993Z,21.56
2017-02-04T07:08:22.490Z,21.66
2017-02-04T07:09:02.985Z,21.51
2017-02-04T07:09:43.481Z,21.52
2017-02-04T07:10:23.974Z,21.48
2017-02-04T07:11:04.455Z,21.56
2017-02-04T07:11:44.955Z,21.45
2017-02-04T07:12:25.435Z,21.55
2017-02-04T07:13:05.932Z,21.58
2017-02-04T07:13:46.430Z,21.53
2017-02-04T07:14:26.913Z,21.53
2017-02-04T07:15:07.405Z,21.62
2017-02-04T07:15:47.889Z,21.52
2017-02-04T07:16:28.400Z,21.53
2017-02-04T07:17:08.881Z,21.55
2017-02-04T07:17:49.375Z,21.55
2017-02-04T07:18:29.909Z,21.52
2017-02-04T07:19:10.398Z,21.59
2017-02-04T07:19:50.895Z,21.51
2017-02-04T07:20:31.397Z,21.56
2017-02-04T07:21:11.884Z,21.49
2017-02-04T07:21:52.374Z,21.48
2017-02-04T07:22:32.869Z,21.46
2017-02-04T07:23:13.363Z,21.48
2017-02-04T07:23:53.869Z,21.48
2017-02-04T07:24:34.354Z,21.48
2017-02-04T07:25:14.860Z,21.48
2017-02-04T07:25:55.356Z,21.37
2017-02-04T07:26:35.840Z,21.41
2017-02-04T07:27:16.336Z,21.49
2017-02-04T07:27:56.831Z,21.46
2017-02-04T07:28:37.318Z,21.51
2017-02-04T07:29:17.828Z,21.38
2017-02-04T07:29:58.314Z,21.4
2017-02-04T07:30:38.898Z,21.43
2017-02-04T07:31:19.363Z,21.38
2017-02-04T07:31:59.856Z,21.51
2017-02-04T07:32:40.351Z,21.4
2017-02-04T07:33:20.852Z,21.53
2017-02-04T07:34:01.355Z,21.45
2017-02-04T07:34:41.861Z,21.4
2017-02-04T07:35:22.363Z,21.36
2017-02-04T07:36:02.854Z,21.43
2017-02-04T07:36:43.344Z,21.49
2017-02-04T07:37:23.850Z,21.59
2017-02-04T07:38:04.358Z,21.59
2017-02-04T07:38:44.854Z,21.55
2017-02-04T07:39:25.346Z,21.62
2017-02-04T07:40:05.844Z,21.58
2017-02-04T07:40:46.345Z,21.49
2017-02-04T07:41:26.857Z,21.67
2017-02-04T07:42:07.349Z,21.7
2017-02-04T07:42:47.822Z,21.7
2017-02-04T07:43:28.309Z,21.67
2017-02-04T07:44:08.803Z,21.7
2017-02-04T07:44:49.294Z,21.67
2017-02-04T07:45:29.781Z,21.58
2017-02-04T07:46:10.274Z,21.64
2017-02-04T07:46:50.749Z,21.56
2017-02-04T07:47:31.243Z,21.55
2017-02-04T07:48:11.754Z,21.55
2017-02-04T07:48:52.247Z,21.46
2017-02-04T07:49:32.729Z,21.53
2017-02-04T07:50:13.222Z,21.51
2017-02-04T07:50:53.726Z,21.55
2017-02-04T07:51:34.229Z,21.55
2017-02-04T07:52:14.712Z,21.64
2017-02-04T07:52:55.210Z,21.58
2017-02-04T07:53:35.705Z,21.61
2017-02-04T07:54:16.194Z,21.61
2017-02-04T07:54:56.688Z,21.48
2017-02-04T07:55:37.186Z,21.58
2017-02-04T07:56:17.683Z,21.55
2017-02-04T07:56:58.185Z,21.51
2017-02-04T07:57:38.688Z,21.53
2017-02-04T07:58:19.188Z,21.53
2017-02-04T07:58:59.669Z,21.56
2017-02-04T07:59:40.255Z,21.59
2017-02-04T08:00:20.871Z,21.68
2017-02-04T08:01:02.961Z,21.62
2017-02-04T08:01:43.270Z,21.64
2017-02-04T08:02:24.078Z,21.67
2017-02-04T08:03:07.904Z,21.62
2017-02-04T08:03:47.414Z,21.66
2017-02-04T08:04:27.899Z,21.61
2017-02-04T08:05:08.394Z,21.64
2017-02-04T08:05:50.980Z,21.66
2017-02-04T08:06:30.917Z,21.67
2017-02-04T08:07:13.414Z,21.71
2017-02-04T08:07:53.535Z,21.7
2017-02-04T08:08:34.111Z,21.7
2017-02-04T08:09:14.614Z,21.64
2017-02-04T08:09:55.092Z,21.62
2017-02-04T08:10:35.581Z,21.71
2017-02-04T08:11:16.095Z,21.68
2017-02-04T08:11:56.589Z,21.64
2017-02-04T08:12:37.094Z,21.64
2017-02-04T08:13:17.589Z,21.61
2017-02-04T08:13:58.093Z,21.66
2017-02-04T08:14:38.596Z,21.64
2017-02-04T08:15:19.086Z,21.67
2017-02-04T08:15:59.577Z,21.68
2017-02-04T08:16:40.084Z,21.67
2017-02-04T08:17:20.576Z,21.67
2017-02-04T08:18:01.065Z,21.64
2017-02-04T08:18:41.554Z,21.71
2017-02-04T08:19:22.055Z,21.67
2017-02-04T08:20:02.542Z,21.71
2017-02-04T08:20:43.066Z,21.76
2017-02-04T08:21:23.531Z,21.74
2017-02-04T08:22:04.011Z,21.74
2017-02-04T08:22:44.502Z,21.73
2017-02-04T08:23:24.991Z,21.74
2017-02-04T08:24:05.480Z,21.74
2017-02-04T08:24:45.975Z,21.66
2017-02-04T08:25:26.481Z,21.77
2017-02-04T08:26:06.975Z,21.73
2017-02-04T08:26:47.466Z,21.58
2017-02-04T08:27:27.958Z,21.64
2017-02-04T08:28:08.460Z,21.64
2017-02-04T08:28:48.947Z,21.56
2017-02-04T08:29:29.430Z,21.52
2017-02-04T08:30:09.923Z,21.56
2017-02-04T08:30:50.417Z,21.56
2017-02-04T08:31:31.075Z,21.64
2017-02-04T08:32:11.546Z,21.61
2017-02-04T08:32:52.041Z,21.64
2017-02-04T08:33:32.528Z,21.7
2017-02-04T08:34:13.009Z,21.52
2017-02-04T08:34:53.491Z,21.62
2017-02-04T08:35:33.980Z,21.66
2017-02-04T08:36:14.492Z,21.68
2017-02-04T08:36:54.987Z,21.64
2017-02-04T08:37:35.513Z,21.62
2017-02-04T08:38:15.971Z,21.59
2017-02-04T08:38:56.468Z,21.58
2017-02-04T08:39:36.963Z,21.67
2017-02-04T08:40:17.455Z,21.7
2017-02-04T08:40:57.953Z,21.74
2017-02-04T08:41:38.457Z,21.71
2017-02-04T08:42:18.956Z,21.74
2017-02-04T08:42:59.458Z,21.77
2017-02-04T08:43:39.957Z,21.76
2017-02-04T08:44:20.431Z,21.74
2017-02-04T08:45:00.933Z,21.83
2017-02-04T08:45:41.427Z,21.76
2017-02-04T08:46:21.923Z,21.71
2017-02-04T08:47:02.409Z,21.66